createdAt,value
2023-04-15T00:00:59.685Z,8.70
2023-04-15T00:03:28.596Z,8.70
2023-04-15T00:05:57.539Z,8.70
2023-04-15T00:08:25.947Z,8.70
2023-04-15T00:10:54.730Z,8.70
2023-04-15T00:13:24.346Z,8.70
2023-04-15T00:15:52.644Z,8.60
2023-04-15T00:18:20.941Z,8.60
2023-04-15T00:20:49.263Z,8.60
2023-04-15T00:23:17.992Z,8.70
2023-04-15T00:25:46.302Z,8.70
2023-04-15T00:28:14.848Z,8.60
2023-04-15T00:30:44.600Z,8.60
2023-04-15T00:33:13.732Z,8.60
2023-04-15T00:35:42.105Z,8.60
2023-04-15T00:38:10.401Z,8.60
2023-04-15T00:40:39.205Z,8.60
2023-04-15T00:43:07.410Z,8.60
2023-04-15T00:45:35.742Z,8.60
2023-04-15T00:48:05.702Z,8.60
2023-04-15T00:50:34.890Z,8.70
2023-04-15T00:53:03.180Z,8.60
2023-04-15T00:55:31.536Z,8.70
2023-04-15T00:57:59.836Z,8.70
2023-04-15T01:00:28.161Z,8.70
2023-04-15T01:02:56.902Z,8.60
2023-04-15T01:05:27.059Z,8.70
2023-04-15T01:07:56.310Z,8.70
2023-04-15T01:10:24.648Z,8.70
2023-04-15T01:12:53.067Z,8.70
2023-04-15T01:15:21.909Z,8.70
2023-04-15T01:17:50.274Z,8.70
2023-04-15T01:20:18.834Z,8.70
2023-04-15T01:22:48.563Z,8.70
2023-04-15T01:25:20.033Z,8.70
2023-04-15T01:27:49.735Z,8.70
2023-04-15T01:30:18.182Z,8.70
2023-04-15T01:32:46.646Z,8.70
2023-04-15T01:35:15.021Z,8.70
2023-04-15T01:37:43.429Z,8.70
2023-04-15T01:40:12.331Z,8.70
2023-04-15T01:42:40.793Z,8.60
2023-04-15T01:45:12.419Z,8.60
2023-04-15T01:47:40.782Z,8.60
2023-04-15T01:50:10.148Z,8.60
2023-04-15T01:52:38.773Z,8.60
2023-04-15T01:55:09.103Z,8.60
2023-04-15T01:57:38.687Z,8.60
2023-04-15T02:00:08.744Z,8.60
2023-04-15T02:02:38.958Z,8.60
2023-04-15T02:05:08.239Z,8.60
2023-04-15T02:07:37.197Z,8.60
2023-04-15T02:10:06.156Z,8.60
2023-04-15T02:12:34.503Z,8.60
2023-04-15T02:15:02.777Z,8.60
2023-04-15T02:17:31.648Z,8.60
2023-04-15T02:20:01.346Z,8.60
2023-04-15T02:22:30.365Z,8.60
2023-04-15T02:24:58.735Z,8.60
2023-04-15T02:27:28.487Z,8.60
2023-04-15T02:29:56.770Z,8.60
2023-04-15T02:32:25.148Z,8.60
2023-04-15T02:34:53.461Z,8.60
2023-04-15T02:37:23.225Z,8.60
2023-04-15T02:39:51.527Z,8.70
2023-04-15T02:42:21.614Z,8.70
2023-04-15T02:44:49.937Z,8.60
2023-04-15T02:47:18.234Z,8.70
2023-04-15T02:49:46.540Z,8.70
2023-04-15T02:52:15.042Z,8.70
2023-04-15T02:54:44.805Z,8.70
2023-04-15T02:57:13.089Z,8.70
2023-04-15T02:59:41.442Z,8.70
2023-04-15T03:02:09.696Z,8.70
2023-04-15T03:04:38.040Z,8.70
2023-04-15T03:07:06.336Z,8.70
2023-04-15T03:09:35.039Z,8.70
2023-04-15T03:12:04.887Z,8.70
2023-04-15T03:14:33.249Z,8.70
2023-04-15T03:17:01.751Z,8.80
2023-04-15T03:19:30.069Z,8.80
2023-04-15T03:21:58.350Z,8.80
2023-04-15T03:24:27.182Z,8.80
2023-04-15T03:26:56.285Z,8.80
2023-04-15T03:29:25.967Z,8.80
2023-04-15T03:31:54.801Z,8.80
2023-04-15T03:34:23.127Z,8.80
2023-04-15T03:36:51.432Z,8.80
2023-04-15T03:39:19.680Z,8.90
2023-04-15T03:41:48.121Z,8.90
2023-04-15T03:44:16.347Z,8.90
2023-04-15T03:46:46.268Z,8.90
2023-04-15T03:49:15.516Z,8.90
2023-04-15T03:51:43.849Z,8.90
2023-04-15T03:54:12.893Z,8.90
2023-04-15T03:56:41.447Z,8.90
2023-04-15T03:59:09.985Z,8.90
2023-04-15T04:01:38.375Z,9.00
2023-04-15T04:04:08.167Z,9.00
2023-04-15T04:06:36.545Z,8.90
2023-04-15T04:09:05.672Z,8.90
2023-04-15T04:11:34.156Z,8.90
2023-04-15T04:14:02.497Z,9.00
2023-04-15T04:16:31.061Z,9.00
2023-04-15T04:18:59.548Z,9.00
2023-04-15T04:21:29.339Z,9.00
2023-04-15T04:23:59.040Z,9.00
2023-04-15T04:26:27.522Z,9.00
2023-04-15T04:28:55.799Z,9.00
2023-04-15T04:31:24.106Z,9.00
2023-04-15T04:33:52.492Z,9.00
2023-04-15T04:36:20.780Z,9.00
2023-04-15T04:38:50.508Z,9.00
2023-04-15T04:41:19.126Z,9.00
2023-04-15T04:43:47.370Z,9.10
2023-04-15T04:46:15.805Z,9.10
2023-04-15T04:48:45.922Z,9.20
2023-04-15T04:51:15.354Z,9.10
2023-04-15T04:53:44.195Z,9.20
2023-04-15T04:56:13.854Z,9.20
2023-04-15T04:58:42.438Z,9.20
2023-04-15T05:01:10.793Z,9.10
2023-04-15T05:03:39.214Z,9.20
2023-04-15T05:06:08.883Z,9.20
2023-04-15T05:08:39.233Z,9.30
2023-04-15T05:11:11.967Z,9.30
2023-04-15T05:13:41.648Z,9.30
2023-04-15T05:16:10.162Z,9.30
2023-04-15T05:18:38.418Z,9.30
2023-04-15T05:21:06.954Z,9.30
2023-04-15T05:23:38.717Z,9.30
2023-04-15T05:26:07.135Z,9.30
2023-04-15T05:28:35.749Z,9.30
2023-04-15T05:31:05.455Z,9.40
2023-04-15T05:33:33.887Z,9.40
2023-04-15T05:36:02.228Z,9.40
2023-04-15T05:38:30.642Z,9.50
2023-04-15T05:40:58.923Z,9.50
2023-04-15T05:43:27.221Z,9.60
2023-04-15T05:45:55.749Z,9.60
2023-04-15T05:48:25.496Z,9.70
2023-04-15T05:50:53.833Z,9.70
2023-04-15T05:53:22.409Z,9.70
2023-04-15T05:55:50.868Z,9.80
2023-04-15T05:58:19.211Z,9.80
2023-04-15T06:00:47.538Z,9.90
2023-04-15T06:03:15.876Z,9.90
2023-04-15T06:05:45.749Z,9.90
2023-04-15T06:08:14.235Z,10.00
2023-04-15T06:10:42.543Z,10.00
2023-04-15T06:13:11.026Z,10.00
2023-04-15T06:15:39.262Z,10.00
2023-04-15T06:18:07.582Z,10.00
2023-04-15T06:20:36.635Z,10.10
2023-04-15T06:23:06.741Z,10.10
2023-04-15T06:25:35.019Z,10.10
2023-04-15T06:28:03.329Z,10.10
2023-04-15T06:30:31.645Z,10.20
2023-04-15T06:33:00.097Z,10.30
2023-04-15T06:35:28.626Z,10.40
2023-04-15T06:37:57.355Z,10.40
2023-04-15T06:40:27.082Z,10.60
2023-04-15T06:42:55.617Z,10.60
2023-04-15T06:45:24.020Z,10.70
2023-04-15T06:47:52.416Z,10.90
2023-04-15T06:50:20.776Z,10.90
2023-04-15T06:52:49.124Z,10.90
2023-04-15T06:55:17.490Z,10.90
2023-04-15T06:57:47.167Z,10.90
2023-04-15T07:00:16.547Z,11.00
2023-04-15T07:02:45.503Z,11.00
2023-04-15T07:05:13.923Z,11.00
2023-04-15T07:07:42.758Z,11.10
2023-04-15T07:10:12.003Z,11.10
2023-04-15T07:12:40.428Z,11.10
2023-04-15T07:15:11.318Z,11.20
2023-04-15T07:17:39.663Z,11.20
2023-04-15T07:20:09.831Z,11.20
2023-04-15T07:22:38.165Z,11.20
2023-04-15T07:25:08.986Z,11.10
2023-04-15T07:27:37.307Z,11.10
2023-04-15T07:30:06.926Z,11.00
2023-04-15T07:32:36.623Z,11.00
2023-04-15T07:35:05.546Z,11.00
2023-04-15T07:37:33.928Z,10.90
2023-04-15T07:40:02.302Z,10.90
2023-04-15T07:42:30.638Z,10.80
2023-04-15T07:44:59.019Z,10.80
2023-04-15T07:47:27.536Z,10.80
2023-04-15T07:49:57.550Z,10.70
2023-04-15T07:52:25.807Z,10.70
2023-04-15T07:54:54.177Z,10.70
2023-04-15T07:57:22.527Z,10.70
2023-04-15T07:59:50.884Z,10.70
2023-04-15T08:02:19.591Z,10.70
2023-04-15T08:04:48.753Z,10.70
2023-04-15T08:07:18.541Z,10.70
2023-04-15T08:09:46.959Z,10.70
2023-04-15T08:12:15.913Z,10.70
2023-04-15T08:14:44.376Z,10.70
2023-04-15T08:17:12.615Z,10.70
2023-04-15T08:19:42.414Z,10.70
2023-04-15T08:22:18.052Z,10.70
2023-04-15T08:24:48.587Z,10.60
2023-04-15T08:27:16.964Z,10.60
2023-04-15T08:29:45.732Z,10.70
2023-04-15T08:32:14.138Z,10.60
2023-04-15T08:34:42.521Z,10.60
2023-04-15T08:37:11.453Z,10.70
2023-04-15T08:39:40.988Z,10.60
2023-04-15T08:42:13.646Z,10.60
2023-04-15T08:44:41.955Z,10.60
2023-04-15T08:47:10.748Z,10.60
2023-04-15T08:49:41.696Z,10.60
2023-04-15T08:52:10.184Z,10.60
2023-04-15T08:54:38.750Z,10.60
2023-04-15T08:57:07.276Z,10.60
2023-04-15T08:59:36.965Z,10.60
2023-04-15T09:02:06.211Z,10.70
2023-04-15T09:04:34.801Z,10.80
2023-04-15T09:07:03.197Z,10.80
2023-04-15T09:09:31.476Z,10.80
2023-04-15T09:11:59.798Z,10.80
2023-04-15T09:14:29.472Z,10.80
2023-04-15T09:17:03.165Z,10.90
2023-04-15T09:19:33.494Z,10.90
2023-04-15T09:22:01.954Z,10.90
2023-04-15T09:24:38.524Z,10.90
2023-04-15T09:27:07.304Z,11.00
2023-04-15T09:29:35.678Z,11.00
2023-04-15T09:32:15.650Z,11.00
2023-04-15T09:34:44.502Z,11.00
2023-04-15T09:37:24.534Z,11.00
2023-04-15T09:39:59.812Z,11.00
2023-04-15T09:42:28.670Z,10.90
2023-04-15T09:44:57.127Z,11.00
2023-04-15T09:47:30.574Z,10.90
2023-04-15T09:49:59.212Z,10.90
2023-04-15T09:52:28.694Z,10.90
2023-04-15T09:54:59.258Z,10.90
2023-04-15T09:57:33.109Z,10.80
2023-04-15T10:00:01.531Z,10.80
2023-04-15T10:02:31.367Z,10.80
2023-04-15T10:04:59.803Z,10.90
2023-04-15T10:07:28.146Z,10.90
2023-04-15T10:09:56.634Z,10.90
2023-04-15T10:12:24.892Z,11.00
2023-04-15T10:14:57.143Z,11.00
2023-04-15T10:17:25.500Z,11.00
2023-04-15T10:19:56.207Z,11.00
2023-04-15T10:22:24.611Z,10.90
2023-04-15T10:24:53.038Z,10.90
2023-04-15T10:27:22.133Z,11.00
2023-04-15T10:29:52.457Z,11.00
2023-04-15T10:32:21.868Z,10.90
2023-04-15T10:34:51.869Z,11.00
2023-04-15T10:37:24.256Z,11.00
2023-04-15T10:39:52.688Z,11.00
2023-04-15T10:42:21.208Z,11.00
2023-04-15T10:44:51.981Z,11.10
2023-04-15T10:47:21.652Z,11.10
2023-04-15T10:49:51.483Z,11.10
2023-04-15T10:52:29.340Z,11.20
2023-04-15T10:55:04.535Z,11.20
2023-04-15T10:57:37.051Z,11.20
2023-04-15T11:00:13.802Z,11.10
2023-04-15T11:02:47.652Z,11.10
2023-04-15T11:05:16.384Z,11.20
2023-04-15T11:07:54.824Z,11.20
2023-04-15T11:10:56.953Z,11.10
2023-04-15T11:13:29.450Z,11.10
2023-04-15T11:16:02.148Z,11.10
2023-04-15T11:18:32.833Z,11.10
2023-04-15T11:21:06.071Z,11.10
2023-04-15T11:23:38.681Z,11.10
2023-04-15T11:26:09.695Z,11.10
2023-04-15T11:28:38.944Z,11.10
2023-04-15T11:31:10.677Z,11.10
2023-04-15T11:33:40.113Z,11.10
2023-04-15T11:36:09.606Z,11.10
2023-04-15T11:38:39.288Z,11.10
2023-04-15T11:41:07.613Z,11.10
2023-04-15T11:43:36.415Z,11.10
2023-04-15T11:46:05.458Z,11.10
2023-04-15T11:48:34.817Z,11.10
2023-04-15T11:51:04.013Z,11.10
2023-04-15T11:53:42.125Z,11.10
2023-04-15T11:56:11.195Z,11.20
2023-04-15T11:58:40.112Z,11.20
2023-04-15T12:01:08.440Z,11.20
2023-04-15T12:03:41.032Z,11.20
2023-04-15T12:06:19.025Z,11.20
2023-04-15T12:09:13.485Z,11.20
2023-04-15T12:11:45.100Z,11.20
2023-04-15T12:14:20.707Z,11.20
2023-04-15T12:16:50.426Z,11.20
2023-04-15T12:19:25.305Z,11.20
2023-04-15T12:21:55.119Z,11.20
2023-04-15T12:24:24.779Z,11.20
2023-04-15T12:26:54.209Z,11.20
2023-04-15T12:29:26.172Z,11.30
2023-04-15T12:31:56.018Z,11.30
2023-04-15T12:34:34.713Z,11.40
2023-04-15T12:37:04.053Z,11.40
2023-04-15T12:39:36.617Z,11.40
2023-04-15T12:42:05.239Z,11.50
2023-04-15T12:44:33.997Z,11.40
2023-04-15T12:47:03.193Z,11.50
2023-04-15T12:49:32.706Z,11.50
2023-04-15T12:52:02.228Z,11.60
2023-04-15T12:54:31.418Z,11.70
2023-04-15T12:57:01.242Z,11.70
2023-04-15T12:59:29.812Z,11.70
2023-04-15T13:02:00.739Z,11.70
2023-04-15T13:04:30.793Z,11.60
2023-04-15T13:06:59.654Z,11.60
2023-04-15T13:09:27.926Z,11.60
2023-04-15T13:11:57.687Z,11.70
2023-04-15T13:14:27.935Z,11.60
2023-04-15T13:16:56.297Z,11.60
2023-04-15T13:19:24.663Z,11.60
2023-04-15T13:21:52.953Z,11.60
2023-04-15T13:24:21.387Z,11.50
2023-04-15T13:26:50.414Z,11.50
2023-04-15T13:29:18.977Z,11.50
2023-04-15T13:31:48.660Z,11.50
2023-04-15T13:34:17.016Z,11.60
2023-04-15T13:36:45.961Z,11.60
2023-04-15T13:39:14.266Z,11.60
2023-04-15T13:41:42.630Z,11.70
2023-04-15T13:44:12.347Z,11.80
2023-04-15T13:46:41.922Z,11.70
2023-04-15T13:49:11.641Z,11.80
2023-04-15T13:51:40.598Z,11.80
2023-04-15T13:54:08.956Z,11.90
2023-04-15T13:56:37.277Z,11.90
2023-04-15T13:59:06.655Z,12.00
2023-04-15T14:01:35.806Z,12.00
2023-04-15T14:04:04.636Z,12.00
2023-04-15T14:06:34.552Z,12.00
2023-04-15T14:09:02.936Z,12.00
2023-04-15T14:11:31.351Z,12.00
2023-04-15T14:13:59.755Z,11.90
2023-04-15T14:16:28.069Z,12.00
2023-04-15T14:18:56.474Z,12.00
2023-04-15T14:21:24.798Z,12.00
2023-04-15T14:23:54.886Z,11.90
2023-04-15T14:26:23.277Z,12.00
2023-04-15T14:28:52.203Z,11.90
2023-04-15T14:31:20.982Z,12.00
2023-04-15T14:33:49.620Z,11.90
2023-04-15T14:36:17.933Z,11.90
2023-04-15T14:38:47.498Z,11.80
2023-04-15T14:41:18.280Z,11.80
2023-04-15T14:43:46.526Z,11.80
2023-04-15T14:46:15.413Z,11.90
2023-04-15T14:48:44.302Z,11.90
2023-04-15T14:51:12.586Z,11.90
2023-04-15T14:53:41.123Z,11.90
2023-04-15T14:56:09.559Z,11.90
2023-04-15T14:58:39.186Z,11.90
2023-04-15T15:01:07.682Z,11.90
2023-04-15T15:03:36.245Z,11.90
2023-04-15T15:06:04.851Z,12.00
2023-04-15T15:08:33.077Z,12.00
2023-04-15T15:11:01.949Z,12.00
2023-04-15T15:13:31.321Z,12.00
2023-04-15T15:16:01.009Z,11.90
2023-04-15T15:18:29.353Z,11.90
2023-04-15T15:20:57.616Z,11.90
2023-04-15T15:23:25.893Z,11.80
2023-04-15T15:25:54.497Z,11.80
2023-04-15T15:28:22.827Z,11.80
2023-04-15T15:30:51.161Z,11.80
2023-04-15T15:33:20.944Z,11.70
2023-04-15T15:35:49.252Z,11.70
2023-04-15T15:38:17.632Z,11.60
2023-04-15T15:40:45.939Z,11.60
2023-04-15T15:43:14.227Z,11.60
2023-04-15T15:45:42.520Z,11.60
2023-04-15T15:48:10.792Z,11.60
2023-04-15T15:50:40.518Z,11.60
2023-04-15T15:53:08.735Z,11.70
2023-04-15T15:55:37.035Z,11.60
2023-04-15T15:58:05.310Z,11.60
2023-04-15T16:00:33.634Z,11.60
2023-04-15T16:03:07.253Z,11.50
2023-04-15T16:05:36.157Z,11.50
2023-04-15T16:08:06.400Z,11.50
2023-04-15T16:10:34.758Z,11.50
2023-04-15T16:13:03.024Z,11.50
2023-04-15T16:15:31.367Z,11.50
2023-04-15T16:17:59.763Z,11.50
2023-04-15T16:20:28.345Z,11.40
2023-04-15T16:22:58.170Z,11.50
2023-04-15T16:25:27.900Z,11.50
2023-04-15T16:28:05.550Z,11.50
2023-04-15T16:30:37.688Z,11.50
2023-04-15T16:33:06.164Z,11.50
2023-04-15T16:35:34.847Z,11.50
2023-04-15T16:38:03.336Z,11.50
2023-04-15T16:40:32.990Z,11.50
2023-04-15T16:43:01.361Z,11.50
2023-04-15T16:45:29.709Z,11.50
2023-04-15T16:47:58.096Z,11.40
2023-04-15T16:50:26.542Z,11.40
2023-04-15T16:52:55.178Z,11.40
2023-04-15T16:55:23.417Z,11.30
2023-04-15T16:58:02.117Z,11.30
2023-04-15T17:00:32.089Z,11.30
2023-04-15T17:03:01.194Z,11.30
2023-04-15T17:05:30.587Z,11.30
2023-04-15T17:07:58.974Z,11.40
2023-04-15T17:10:27.293Z,11.30
2023-04-15T17:12:58.571Z,11.30
2023-04-15T17:15:27.115Z,11.30
2023-04-15T17:17:55.452Z,11.30
2023-04-15T17:20:23.813Z,11.30
2023-04-15T17:22:52.151Z,11.30
2023-04-15T17:25:20.902Z,11.30
2023-04-15T17:27:49.201Z,11.20
2023-04-15T17:30:18.998Z,11.20
2023-04-15T17:32:47.391Z,11.20
2023-04-15T17:35:15.690Z,11.20
2023-04-15T17:37:43.969Z,11.20
2023-04-15T17:40:14.760Z,11.20
2023-04-15T17:42:43.076Z,11.10
2023-04-15T17:45:12.622Z,11.20
2023-04-15T17:47:42.944Z,11.10
2023-04-15T17:50:11.455Z,11.20
2023-04-15T17:52:39.764Z,11.20
2023-04-15T17:55:09.256Z,11.20
2023-04-15T17:57:37.496Z,11.10
2023-04-15T18:00:08.786Z,11.10
2023-04-15T18:02:37.534Z,11.10
2023-04-15T18:05:08.483Z,11.10
2023-04-15T18:07:36.903Z,11.00
2023-04-15T18:10:06.415Z,11.00
2023-04-15T18:12:34.712Z,11.00
2023-04-15T18:15:04.389Z,11.00
2023-04-15T18:17:32.728Z,10.90
2023-04-15T18:20:01.004Z,10.90
2023-04-15T18:22:30.699Z,10.90
2023-04-15T18:25:03.884Z,10.80
2023-04-15T18:27:33.043Z,10.80
2023-04-15T18:30:01.372Z,10.80
2023-04-15T18:32:32.537Z,10.80
2023-04-15T18:35:00.984Z,10.70
2023-04-15T18:37:30.696Z,10.80
2023-04-15T18:39:59.134Z,10.80
2023-04-15T18:42:27.441Z,10.80
2023-04-15T18:44:55.943Z,10.80
2023-04-15T18:47:26.499Z,10.80
2023-04-15T18:49:55.298Z,10.70
2023-04-15T18:52:23.607Z,10.70
2023-04-15T18:54:53.314Z,10.70
2023-04-15T18:57:23.487Z,10.70
2023-04-15T18:59:56.956Z,10.80
2023-04-15T19:02:25.351Z,10.70
2023-04-15T19:04:53.656Z,10.70
2023-04-15T19:07:23.108Z,10.70
2023-04-15T19:09:52.851Z,10.70
2023-04-15T19:12:21.389Z,10.60
2023-04-15T19:14:49.663Z,10.60
2023-04-15T19:17:17.991Z,10.60
2023-04-15T19:19:46.316Z,10.60
2023-04-15T19:22:14.604Z,10.60
2023-04-15T19:24:43.098Z,10.60
2023-04-15T19:27:12.760Z,10.60
2023-04-15T19:29:41.005Z,10.60
2023-04-15T19:32:09.711Z,10.60
2023-04-15T19:34:38.013Z,10.60
2023-04-15T19:37:06.276Z,10.60
2023-04-15T19:39:34.704Z,10.60
2023-04-15T19:42:03.693Z,10.60
2023-04-15T19:44:33.405Z,10.60
2023-04-15T19:47:01.754Z,10.50
2023-04-15T19:49:30.173Z,10.50
2023-04-15T19:51:58.428Z,10.60
2023-04-15T19:54:27.086Z,10.60
2023-04-15T19:56:55.723Z,10.50
2023-04-15T19:59:24.005Z,10.60
2023-04-15T20:01:53.771Z,10.60
2023-04-15T20:04:22.837Z,10.50
2023-04-15T20:06:51.304Z,10.50
2023-04-15T20:09:19.696Z,10.60
2023-04-15T20:12:46.851Z,10.60
2023-04-15T20:14:36.461Z,10.60
2023-04-15T20:17:06.119Z,10.60
2023-04-15T20:19:34.439Z,10.60
2023-04-15T20:22:02.737Z,10.50
2023-04-15T20:24:31.072Z,10.60
2023-04-15T20:26:59.362Z,10.50
2023-04-15T20:29:27.736Z,10.50
2023-04-15T20:31:56.314Z,10.50
2023-04-15T20:34:26.114Z,10.50
2023-04-15T20:36:54.335Z,10.40
2023-04-15T20:39:22.665Z,10.40
2023-04-15T20:41:51.481Z,10.40
2023-04-15T20:44:19.749Z,10.40
2023-04-15T20:46:48.024Z,10.40
2023-04-15T20:49:16.279Z,10.40
2023-04-15T20:51:46.017Z,10.40
2023-04-15T20:54:14.691Z,10.40
2023-04-15T20:56:42.981Z,10.40
2023-04-15T20:59:11.327Z,10.40
2023-04-15T21:01:40.251Z,10.40
2023-04-15T21:04:08.619Z,10.30
2023-04-15T21:06:36.916Z,10.40
2023-04-15T21:09:06.992Z,10.30
2023-04-15T21:14:08.771Z,10.30
2023-04-15T21:16:37.101Z,10.30
2023-04-15T21:19:05.546Z,10.30
2023-04-15T21:21:34.067Z,10.30
2023-04-15T21:24:02.411Z,10.30
2023-04-15T21:26:32.116Z,10.30
2023-04-15T21:29:00.727Z,10.30
2023-04-15T21:31:29.043Z,10.20
2023-04-15T21:33:57.407Z,10.30
2023-04-15T21:36:25.826Z,10.30
2023-04-15T21:38:54.859Z,10.30
2023-04-15T21:41:23.117Z,10.30
2023-04-15T21:43:52.805Z,10.20
2023-04-15T21:46:25.368Z,10.20
2023-04-15T21:49:00.750Z,10.30
2023-04-15T21:51:29.043Z,10.30
2023-04-15T21:53:57.290Z,10.20
2023-04-15T21:56:26.067Z,10.20
2023-04-15T21:58:57.839Z,10.20
2023-04-15T22:01:26.495Z,10.20
2023-04-15T22:03:55.131Z,10.30
2023-04-15T22:06:23.585Z,10.20
2023-04-15T22:08:57.456Z,10.20
2023-04-15T22:11:28.205Z,10.20
2023-04-15T22:13:58.211Z,10.20
2023-04-15T22:16:26.976Z,10.20
2023-04-15T22:18:55.601Z,10.30
2023-04-15T22:21:24.513Z,10.30
2023-04-15T22:23:52.971Z,10.20
2023-04-15T22:26:41.229Z,10.30
2023-04-15T22:29:11.031Z,10.20
2023-04-15T22:31:39.324Z,10.20
2023-04-15T22:34:08.486Z,10.20
2023-04-15T22:36:36.842Z,10.20
2023-04-15T22:39:05.244Z,10.10
2023-04-15T22:41:33.714Z,10.10
2023-04-15T22:44:01.990Z,10.20
2023-04-15T22:46:31.632Z,10.20
2023-04-15T22:48:59.933Z,10.20
2023-04-15T22:51:29.306Z,10.20
2023-04-15T22:53:57.608Z,10.10
2023-04-15T22:56:25.927Z,10.10
2023-04-15T22:58:54.465Z,10.20
2023-04-15T23:01:22.737Z,10.20
2023-04-15T23:03:57.123Z,10.20
2023-04-15T23:06:33.391Z,10.20
2023-04-15T23:09:01.706Z,10.20
2023-04-15T23:11:30.212Z,10.20
2023-04-15T23:13:58.463Z,10.20
2023-04-15T23:16:26.904Z,10.20
2023-04-15T23:18:56.658Z,10.20
2023-04-15T23:21:26.158Z,10.20
2023-04-15T23:23:54.534Z,10.30
2023-04-15T23:26:22.865Z,10.30
2023-04-15T23:28:51.172Z,10.40
2023-04-15T23:31:19.452Z,10.40
2023-04-15T23:33:47.734Z,10.50
2023-04-15T23:36:18.691Z,10.50
2023-04-15T23:38:47.898Z,10.40
2023-04-15T23:41:16.336Z,10.40
2023-04-15T23:43:44.625Z,10.30
2023-04-15T23:46:13.092Z,10.30
2023-04-15T23:48:41.943Z,10.20
2023-04-15T23:51:10.301Z,10.20
2023-04-15T23:53:39.922Z,10.20
2023-04-15T23:56:09.013Z,10.20
2023-04-15T23:58:37.318Z,10.20
